Terminal Aerodrome Forecast
Issued by NWS

Home | Current Version | Previous Version | Text Only | Print | Product List | Glossary On
Versions: 1 2 3 4 5 6 7 8 9 10 11 12 13 14 15 16 17 18 19 20 21 22 23 24 25 26 27 28 29
000
FTUS41 KRLX 301200 CCA
TAFCKB
TAF COR
KCKB 301257Z 3013/3112 33010G20KT 2SM -SN BKN019
     FM301330 31013G20KT 4SM -SN BR BKN025
     FM301800 30012G18KT P6SM BKN020
     FM310800 25005KT P6SM BKN035=

USA.gov is the U.S. government's official web portal to all federal, state and local government web resources and services.